Time;durP1;ratioP1;P1;durP2;ratioP2;P2;SDS_P1;SDS_P2;PMS_P1;PMS_P2;Temp;Humidity;BMP_temperature;BMP_pressure;BME280_temperature;BME280_humidity;BME280_pressure;Samples;Min_cycle;Max_cycle;Signal;HPM_P1;HPM_P2
2021/08/08 00:01:34;;;;;;;1.40;0.80;;;18.40;99.90;;;;;;4973818;28;20468;-80
2021/08/08 00:04:04;;;;;;;2.40;0.87;;;18.40;99.90;;;;;;4972828;28;20453;-80
2021/08/08 00:06:40;;;;;;;1.93;0.70;;;18.40;99.90;;;;;;4989299;28;20445;-79
2021/08/08 00:09:08;;;;;;;0.87;0.80;;;18.40;99.90;;;;;;4973986;28;20470;-80
2021/08/08 00:11:36;;;;;;;2.03;1.20;;;18.30;99.90;;;;;;4972912;28;20605;-80
2021/08/08 00:14:05;;;;;;;1.53;0.80;;;18.40;99.90;;;;;;4970796;28;20934;-80
2021/08/08 00:16:34;;;;;;;4.87;0.80;;;18.40;99.90;;;;;;4970649;28;20451;-79
2021/08/08 00:19:02;;;;;;;2.47;0.67;;;18.30;99.90;;;;;;4977877;28;20496;-80
2021/08/08 00:21:31;;;;;;;1.43;0.93;;;18.30;99.90;;;;;;4974432;28;20485;-79
2021/08/08 00:24:00;;;;;;;1.90;0.73;;;18.30;99.90;;;;;;4974270;28;20818;-79
2021/08/08 00:26:28;;;;;;;1.43;1.00;;;18.20;1.00;;;;;;4969910;28;20467;-79
2021/08/08 00:28:56;;;;;;;2.90;1.20;;;18.10;1.00;;;;;;4968768;28;21187;-79
2021/08/08 00:31:24;;;;;;;1.07;0.87;;;18.00;1.00;;;;;;4969161;28;20474;-78
2021/08/08 00:33:52;;;;;;;4.97;1.00;;;18.10;1.00;;;;;;4971719;28;20454;-78
2021/08/08 00:36:21;;;;;;;2.90;0.87;;;18.10;1.00;;;;;;4985600;28;20485;-79
2021/08/08 00:38:51;;;;;;;1.03;0.90;;;18.10;1.00;;;;;;4973434;28;20488;-79
2021/08/08 00:41:20;;;;;;;1.37;0.87;;;18.10;1.00;;;;;;4973972;28;20474;-79
2021/08/08 00:43:48;;;;;;;2.17;0.80;;;18.20;99.90;;;;;;4983220;28;20458;-79
2021/08/08 00:46:16;;;;;;;1.33;0.80;;;18.10;1.00;;;;;;4984410;28;21077;-79
2021/08/08 00:48:44;;;;;;;2.30;0.80;;;18.00;1.00;;;;;;4984681;28;20977;-80
2021/08/08 00:51:12;;;;;;;1.83;0.90;;;17.90;1.00;;;;;;4984184;28;20486;-79
2021/08/08 00:53:40;;;;;;;2.13;1.10;;;17.90;2.50;;;;;;4969926;28;20965;-79
2021/08/08 00:56:11;;;;;;;1.47;0.70;;;17.90;1.00;;;;;;4969637;28;20887;-80
2021/08/08 00:58:39;;;;;;;2.00;0.70;;;17.80;69.10;;;;;;4973425;28;20565;-80
2021/08/08 01:01:11;;;;;;;1.70;0.80;;;17.80;1.00;;;;;;4969433;28;20477;-80
2021/08/08 01:03:41;;;;;;;1.27;0.97;;;17.60;1.00;;;;;;4979616;28;20473;-80
2021/08/08 01:06:16;;;;;;;3.23;0.93;;;17.60;99.90;;;;;;4980431;28;20474;-80
2021/08/08 01:08:48;;;;;;;1.70;0.80;;;17.70;99.90;;;;;;4973701;28;20487;-80
2021/08/08 01:11:19;;;;;;;1.87;0.80;;;17.70;99.90;;;;;;4983314;28;20478;-80
2021/08/08 01:13:49;;;;;;;1.80;0.80;;;17.70;36.60;;;;;;4971613;28;20458;-77
2021/08/08 01:16:19;;;;;;;1.37;0.87;;;17.70;99.90;;;;;;4970200;28;20497;-78
2021/08/08 01:18:50;;;;;;;0.87;0.70;;;17.70;1.00;;;;;;4982475;28;20514;-78
2021/08/08 01:21:20;;;;;;;0.70;0.70;;;17.70;99.90;;;;;;4970963;28;20469;-79
2021/08/08 01:23:55;;;;;;;2.93;0.80;;;17.60;1.00;;;;;;4970704;28;20454;-79
2021/08/08 01:26:25;;;;;;;1.47;0.60;;;17.60;32.50;;;;;;4984596;28;20451;-78
2021/08/08 01:28:54;;;;;;;3.43;0.70;;;17.60;99.90;;;;;;4985584;28;20448;-79
2021/08/08 01:31:22;;;;;;;1.43;0.60;;;17.70;49.50;;;;;;4968562;28;21021;-78
2021/08/08 01:33:51;;;;;;;1.10;0.90;;;17.70;83.10;;;;;;4974700;28;20460;-78
2021/08/08 01:36:20;;;;;;;0.90;0.70;;;17.80;21.60;;;;;;4979872;28;20802;-79
2021/08/08 01:38:58;;;;;;;0.97;0.70;;;17.80;1.00;;;;;;4976035;28;20473;-78
2021/08/08 01:41:30;;;;;;;1.13;0.60;;;17.70;1.00;;;;;;4978212;28;20508;-80
2021/08/08 01:43:59;;;;;;;1.03;0.80;;;17.60;91.60;;;;;;4985591;28;20452;-79
2021/08/08 01:46:28;;;;;;;0.90;0.70;;;17.60;99.90;;;;;;4976643;28;20454;-79
2021/08/08 01:48:57;;;;;;;2.40;0.70;;;17.60;99.90;;;;;;4989470;28;20456;-79
2021/08/08 01:51:27;;;;;;;0.70;0.60;;;17.40;1.00;;;;;;4976314;28;20504;-80
2021/08/08 01:53:56;;;;;;;0.70;0.70;;;17.40;18.20;;;;;;4978750;28;20534;-79
2021/08/08 01:56:25;;;;;;;0.60;0.60;;;17.40;1.00;;;;;;4973381;28;20666;-80
2021/08/08 01:58:54;;;;;;;5.40;0.83;;;17.40;1.00;;;;;;4971256;28;20943;-80
2021/08/08 02:01:28;;;;;;;2.93;0.80;;;17.50;1.00;;;;;;4973306;28;20506;-80
2021/08/08 02:03:57;;;;;;;3.80;0.80;;;17.50;1.00;;;;;;4989577;28;20461;-79
2021/08/08 02:06:25;;;;;;;5.20;0.90;;;17.40;1.00;;;;;;4978155;28;20470;-80
2021/08/08 02:08:53;;;;;;;0.70;0.70;;;17.40;99.90;;;;;;4983171;28;20458;-78
2021/08/08 02:11:22;;;;;;;0.63;0.63;;;17.40;99.90;;;;;;4970082;28;20489;-78
2021/08/08 02:13:51;;;;;;;0.90;0.67;;;17.30;99.90;;;;;;4992342;28;20444;-78
2021/08/08 02:16:19;;;;;;;0.70;0.70;;;17.30;99.90;;;;;;4980785;28;20493;-79
2021/08/08 02:18:47;;;;;;;2.13;0.70;;;17.30;99.90;;;;;;4979814;28;20477;-79
2021/08/08 02:21:15;;;;;;;1.87;0.67;;;17.20;1.00;;;;;;4965489;28;20497;-79
2021/08/08 02:23:43;;;;;;;0.77;0.70;;;17.10;99.90;;;;;;4978393;28;20489;-78
2021/08/08 02:26:11;;;;;;;1.70;0.77;;;17.20;99.90;;;;;;4971146;28;20461;-78
2021/08/08 02:28:41;;;;;;;0.80;0.73;;;17.10;99.90;;;;;;4977472;28;20521;-79
2021/08/08 02:31:11;;;;;;;1.83;0.70;;;17.10;99.90;;;;;;4981428;28;20482;-78
2021/08/08 02:33:39;;;;;;;0.87;0.60;;;17.00;58.40;;;;;;4972245;28;20464;-78
2021/08/08 02:36:07;;;;;;;0.77;0.73;;;17.20;99.90;;;;;;4971258;28;20456;-80
2021/08/08 02:38:35;;;;;;;0.80;0.80;;;17.10;47.80;;;;;;4993543;28;20458;-81
2021/08/08 02:41:03;;;;;;;1.07;0.70;;;17.20;1.00;;;;;;4970514;28;20481;-81
2021/08/08 02:43:32;;;;;;;0.80;0.77;;;17.20;99.90;;;;;;4974650;28;20449;-81
2021/08/08 02:46:01;;;;;;;2.67;0.90;;;17.20;99.90;;;;;;4971894;28;20469;-80
2021/08/08 02:48:29;;;;;;;0.73;0.70;;;17.20;1.00;;;;;;4975256;28;20455;-79
2021/08/08 02:50:57;;;;;;;3.23;1.10;;;17.10;99.90;;;;;;4982106;28;20501;-79
2021/08/08 02:53:25;;;;;;;3.43;0.80;;;17.00;7.90;;;;;;4972180;28;20464;-80
2021/08/08 02:55:53;;;;;;;0.73;0.73;;;17.10;1.00;;;;;;4972925;28;20952;-79
2021/08/08 02:58:22;;;;;;;2.60;0.80;;;17.00;1.00;;;;;;4971977;28;20451;-79
2021/08/08 03:00:50;;;;;;;1.40;0.80;;;17.10;1.00;;;;;;4973073;28;20912;-79
2021/08/08 03:03:19;;;;;;;2.03;1.40;;;17.00;99.90;;;;;;4986880;28;20457;-79
2021/08/08 03:05:47;;;;;;;1.00;0.83;;;17.00;75.70;;;;;;4975206;28;20504;-80
2021/08/08 03:08:16;;;;;;;5.33;0.90;;;16.90;99.90;;;;;;4971505;28;20910;-80
2021/08/08 03:10:44;;;;;;;1.03;0.70;;;17.00;99.90;;;;;;4970351;28;20880;-79
2021/08/08 03:13:12;;;;;;;1.10;0.90;;;17.00;99.90;;;;;;4977623;28;20461;-79
2021/08/08 03:15:40;;;;;;;1.70;0.80;;;17.00;1.00;;;;;;4968777;28;20561;-80
2021/08/08 03:18:08;;;;;;;1.10;0.90;;;17.10;99.90;;;;;;4977367;28;20453;-80
2021/08/08 03:20:38;;;;;;;2.10;0.90;;;17.10;66.40;;;;;;4984593;28;20520;-78
2021/08/08 03:23:06;;;;;;;7.10;0.90;;;17.10;1.00;;;;;;4974395;28;20455;-79
2021/08/08 03:25:34;;;;;;;1.20;1.00;;;16.80;1.00;;;;;;4971876;28;20459;-79
2021/08/08 03:28:02;;;;;;;1.17;0.80;;;16.80;1.00;;;;;;4981882;28;21044;-79
2021/08/08 03:30:30;;;;;;;1.50;0.80;;;16.60;1.00;;;;;;4982686;28;20553;-79
2021/08/08 03:32:59;;;;;;;2.50;0.87;;;16.70;1.00;;;;;;4982425;28;20451;-78
2021/08/08 03:35:27;;;;;;;0.67;0.67;;;16.60;99.90;;;;;;4976591;28;20457;-79
2021/08/08 03:37:56;;;;;;;1.00;0.70;;;16.60;42.90;;;;;;4970710;28;21030;-79
2021/08/08 03:40:24;;;;;;;3.67;1.07;;;16.30;1.00;;;;;;4969026;28;21035;-79
2021/08/08 03:42:53;;;;;;;2.00;0.90;;;16.50;1.00;;;;;;4978104;28;20467;-81
2021/08/08 03:45:21;;;;;;;1.93;0.90;;;16.70;99.90;;;;;;4975740;28;20463;-78
2021/08/08 03:47:49;;;;;;;1.33;0.70;;;16.80;99.90;;;;;;4971843;28;20452;-79
2021/08/08 03:50:18;;;;;;;0.70;0.70;;;16.90;43.90;;;;;;4969953;28;21031;-78
2021/08/08 03:52:46;;;;;;;1.63;0.80;;;16.90;1.00;;;;;;4973832;28;20480;-78
2021/08/08 03:55:15;;;;;;;1.33;0.73;;;16.90;99.90;;;;;;4970822;28;20466;-80
2021/08/08 03:57:43;;;;;;;1.20;0.90;;;16.90;99.90;;;;;;4969431;28;20516;-79
2021/08/08 04:00:12;;;;;;;0.80;0.63;;;16.90;98.30;;;;;;4972096;28;20533;-80
2021/08/08 04:02:40;;;;;;;1.97;0.80;;;16.80;99.90;;;;;;4972766;28;21095;-77
2021/08/08 04:05:10;;;;;;;1.20;0.70;;;16.70;1.00;;;;;;4983846;28;20460;-77
2021/08/08 04:07:38;;;;;;;1.57;0.90;;;16.70;1.00;;;;;;4979466;28;20455;-79
2021/08/08 04:10:07;;;;;;;8.53;1.07;;;16.70;1.00;;;;;;4985559;28;20522;-78
2021/08/08 04:12:37;;;;;;;2.40;0.60;;;16.80;99.90;;;;;;4982806;28;20472;-79
2021/08/08 04:15:06;;;;;;;0.80;0.80;;;16.80;99.90;;;;;;4974009;28;20537;-77
2021/08/08 04:17:34;;;;;;;0.80;0.70;;;16.90;1.00;;;;;;4971317;28;20460;-80
2021/08/08 04:20:03;;;;;;;1.37;0.90;;;16.90;1.00;;;;;;4977288;28;20471;-78
2021/08/08 04:22:31;;;;;;;1.57;0.80;;;16.90;99.90;;;;;;4986210;28;20556;-80
2021/08/08 04:24:59;;;;;;;1.07;0.97;;;16.90;99.90;;;;;;4972034;28;20454;-79
2021/08/08 04:27:27;;;;;;;5.67;0.90;;;16.80;99.90;;;;;;4970645;28;20462;-78
2021/08/08 04:29:57;;;;;;;1.33;0.63;;;16.80;81.00;;;;;;4977163;28;20954;-79
2021/08/08 04:32:25;;;;;;;1.10;0.63;;;17.00;99.90;;;;;;4970277;28;20475;-81
2021/08/08 04:34:53;;;;;;;1.10;0.80;;;17.00;1.00;;;;;;4974149;28;20885;-81
2021/08/08 04:37:21;;;;;;;1.67;0.73;;;16.80;5.50;;;;;;4971271;28;20988;-79
2021/08/08 04:39:50;;;;;;;1.87;0.83;;;16.70;1.00;;;;;;4972495;28;20819;-80
2021/08/08 04:42:18;;;;;;;1.17;0.60;;;16.80;1.00;;;;;;4974149;28;22562;-80
2021/08/08 04:44:46;;;;;;;1.20;0.80;;;16.90;99.90;;;;;;4980781;28;20459;-80
2021/08/08 04:47:15;;;;;;;1.87;0.70;;;16.70;99.90;;;;;;4968582;28;20462;-79
2021/08/08 04:49:43;;;;;;;0.83;0.70;;;16.70;1.00;;;;;;4975445;28;20460;-79
2021/08/08 04:52:11;;;;;;;0.70;0.70;;;16.70;99.90;;;;;;4975345;28;20469;-80
2021/08/08 04:54:39;;;;;;;1.63;0.60;;;16.80;99.90;;;;;;4970127;28;20451;-80
2021/08/08 04:57:08;;;;;;;2.00;0.80;;;16.90;1.00;;;;;;4976494;28;20517;-80
2021/08/08 04:59:36;;;;;;;0.97;0.60;;;16.80;1.00;;;;;;4965614;28;20466;-79
2021/08/08 05:02:04;;;;;;;1.23;0.70;;;16.50;99.90;;;;;;4948226;28;20535;-80
2021/08/08 05:04:34;;;;;;;0.60;0.57;;;16.60;1.00;;;;;;4948796;29;20480;-80
2021/08/08 05:07:02;;;;;;;1.20;0.70;;;16.70;1.00;;;;;;4948020;29;20442;-80
2021/08/08 05:09:30;;;;;;;2.33;0.70;;;16.90;1.00;;;;;;4948998;29;20533;-81
2021/08/08 05:11:58;;;;;;;0.60;0.60;;;17.10;99.90;;;;;;4948000;28;20528;-80
2021/08/08 05:14:27;;;;;;;1.17;0.80;;;17.10;99.90;;;;;;4953526;28;20470;-80
2021/08/08 05:16:55;;;;;;;1.33;0.60;;;17.10;63.60;;;;;;4958095;28;20444;-80
2021/08/08 05:19:23;;;;;;;1.70;0.80;;;17.20;47.50;;;;;;4973393;28;20455;-80
2021/08/08 05:21:52;;;;;;;0.73;0.70;;;17.10;1.00;;;;;;4973839;28;20476;-80
2021/08/08 05:24:20;;;;;;;0.80;0.67;;;17.20;36.20;;;;;;4973994;28;20533;-80
2021/08/08 05:26:49;;;;;;;0.80;0.70;;;17.20;1.00;;;;;;4973943;28;21024;-80
2021/08/08 05:29:17;;;;;;;0.97;0.70;;;17.20;8.40;;;;;;4973521;28;20532;-79
2021/08/08 05:31:45;;;;;;;3.90;0.77;;;17.20;99.90;;;;;;4973667;28;20515;-80
2021/08/08 05:34:13;;;;;;;5.10;0.70;;;17.20;99.90;;;;;;4973872;28;20461;-79
2021/08/08 05:36:41;;;;;;;0.73;0.60;;;17.20;99.90;;;;;;4974142;28;20469;-80
2021/08/08 05:39:11;;;;;;;1.37;0.70;;;17.20;99.90;;;;;;4973654;28;20460;-80
2021/08/08 05:41:39;;;;;;;2.10;0.83;;;17.10;99.90;;;;;;4974055;28;20529;-80
2021/08/08 05:44:07;;;;;;;0.63;0.63;;;17.10;99.90;;;;;;4971966;28;20515;-80
2021/08/08 05:46:35;;;;;;;1.30;0.90;;;17.00;99.90;;;;;;4973994;28;20494;-80
2021/08/08 05:49:05;;;;;;;1.00;0.60;;;17.00;99.90;;;;;;4987812;28;20528;-80
2021/08/08 05:51:33;;;;;;;0.90;0.60;;;17.00;99.90;;;;;;4973744;28;20488;-80
2021/08/08 05:54:01;;;;;;;1.50;0.70;;;17.00;99.90;;;;;;4971903;28;20452;-80
2021/08/08 05:56:31;;;;;;;0.70;0.70;;;16.90;99.90;;;;;;4973920;28;20514;-80
2021/08/08 05:58:59;;;;;;;0.70;0.70;;;17.00;1.00;;;;;;4972608;28;20539;-80
2021/08/08 06:01:27;;;;;;;1.53;0.70;;;17.10;99.90;;;;;;4974047;28;20702;-80
2021/08/08 06:03:55;;;;;;;1.47;0.60;;;17.20;1.00;;;;;;4972910;28;20480;-80
2021/08/08 06:06:23;;;;;;;1.33;0.80;;;17.20;1.00;;;;;;4974182;28;20507;-79
2021/08/08 06:08:51;;;;;;;0.80;0.80;;;17.20;1.00;;;;;;4972289;28;20463;-80
2021/08/08 06:11:19;;;;;;;0.90;0.70;;;17.30;28.20;;;;;;4972524;28;21019;-80
2021/08/08 06:13:49;;;;;;;1.03;0.60;;;17.40;99.90;;;;;;4972708;28;20437;-80
2021/08/08 06:16:17;;;;;;;2.00;0.83;;;17.50;99.90;;;;;;4974122;28;20934;-80
2021/08/08 06:18:46;;;;;;;0.70;0.70;;;17.50;99.90;;;;;;4974373;28;20456;-80
2021/08/08 06:21:14;;;;;;;1.50;0.50;;;17.70;99.90;;;;;;4973300;28;20485;-77
2021/08/08 06:23:42;;;;;;;0.77;0.70;;;17.60;1.00;;;;;;4972749;28;20458;-80
2021/08/08 06:26:10;;;;;;;1.43;0.60;;;17.70;99.90;;;;;;4988847;28;20460;-80
2021/08/08 06:28:38;;;;;;;2.30;0.60;;;17.90;99.90;;;;;;4972734;28;20513;-80
2021/08/08 06:31:08;;;;;;;0.80;0.63;;;17.90;15.00;;;;;;4973727;28;20473;-80
2021/08/08 06:33:37;;;;;;;0.53;0.50;;;18.00;1.00;;;;;;4972481;28;20961;-81
2021/08/08 06:36:05;;;;;;;1.93;1.10;;;18.10;1.00;;;;;;4988654;28;20443;-80
2021/08/08 06:38:35;;;;;;;0.60;0.60;;;18.20;1.00;;;;;;4972298;28;20446;-80
2021/08/08 06:41:03;;;;;;;0.93;0.80;;;18.00;1.00;;;;;;4972981;28;20482;-80
2021/08/08 06:43:31;;;;;;;1.10;0.70;;;18.20;1.00;;;;;;4973279;28;20462;-80
2021/08/08 06:45:59;;;;;;;1.40;0.73;;;18.30;1.00;;;;;;4973685;28;20470;-80
2021/08/08 06:48:30;;;;;;;0.70;0.57;;;18.50;99.90;;;;;;4970498;28;20986;-80
2021/08/08 06:50:58;;;;;;;1.10;0.60;;;18.60;99.90;;;;;;4973215;28;20477;-80
2021/08/08 06:53:26;;;;;;;1.83;0.70;;;18.90;99.90;;;;;;4972686;28;20447;-80
2021/08/08 06:55:54;;;;;;;0.83;0.70;;;19.20;99.90;;;;;;4973976;28;20451;-80
2021/08/08 06:58:22;;;;;;;1.30;0.90;;;19.40;99.90;;;;;;4972666;28;20501;-80
2021/08/08 07:00:50;;;;;;;2.43;0.70;;;19.60;8.30;;;;;;4973241;28;20541;-80
2021/08/08 07:03:19;;;;;;;0.77;0.60;;;19.70;1.00;;;;;;4973427;28;20536;-80
2021/08/08 07:05:48;;;;;;;0.80;0.63;;;19.80;1.00;;;;;;4973275;28;20462;-80
2021/08/08 07:08:16;;;;;;;1.63;1.27;;;19.70;8.10;;;;;;4972782;28;20478;-80
2021/08/08 07:10:45;;;;;;;3.27;0.83;;;19.80;3.10;;;;;;4972477;28;20959;-81
2021/08/08 07:13:13;;;;;;;1.33;0.60;;;20.00;1.00;;;;;;4972762;28;20453;-80
2021/08/08 07:15:41;;;;;;;0.67;0.60;;;20.20;1.00;;;;;;4973348;28;20458;-79
2021/08/08 07:18:09;;;;;;;2.00;0.73;;;20.40;1.00;;;;;;4973614;28;20514;-81
2021/08/08 07:20:38;;;;;;;2.77;0.60;;;20.40;1.00;;;;;;4972961;28;20530;-81
2021/08/08 07:23:08;;;;;;;2.90;1.10;;;20.40;1.00;;;;;;4973045;28;20995;-81
2021/08/08 07:25:36;;;;;;;0.70;0.70;;;20.40;1.00;;;;;;4973357;28;20455;-80
2021/08/08 07:28:04;;;;;;;1.70;0.67;;;20.30;1.00;;;;;;4988416;28;20574;-80
2021/08/08 07:30:33;;;;;;;0.87;0.70;;;20.30;1.00;;;;;;4972956;28;20850;-80
2021/08/08 07:33:02;;;;;;;2.20;0.80;;;20.30;1.00;;;;;;4973230;28;20463;-80
2021/08/08 07:35:30;;;;;;;1.07;0.80;;;20.30;1.00;;;;;;4973857;28;20456;-80
2021/08/08 07:37:59;;;;;;;3.70;0.67;;;20.40;1.00;;;;;;4973659;28;20447;-80
2021/08/08 07:40:28;;;;;;;0.70;0.70;;;20.50;1.00;;;;;;4988294;28;20452;-80
2021/08/08 07:42:59;;;;;;;2.00;0.97;;;20.50;1.00;;;;;;4973983;28;20830;-81
2021/08/08 07:45:27;;;;;;;1.33;0.70;;;20.40;1.00;;;;;;4973019;28;20448;-80
2021/08/08 07:47:55;;;;;;;0.60;0.60;;;20.40;1.00;;;;;;4973062;28;20454;-80
2021/08/08 07:50:23;;;;;;;0.83;0.70;;;20.50;1.00;;;;;;4972832;28;20525;-80
2021/08/08 07:52:51;;;;;;;1.20;0.80;;;20.40;1.00;;;;;;4973327;28;20465;-80
2021/08/08 07:55:21;;;;;;;2.87;0.80;;;20.50;1.00;;;;;;4987446;28;20463;-81
2021/08/08 07:57:50;;;;;;;1.20;1.10;;;20.50;1.00;;;;;;4988282;28;20451;-81
2021/08/08 08:00:19;;;;;;;2.50;1.27;;;20.50;1.00;;;;;;4972323;28;21297;-80
2021/08/08 08:02:47;;;;;;;1.93;0.90;;;20.60;1.00;;;;;;4973487;28;20526;-80
2021/08/08 08:05:15;;;;;;;0.70;0.70;;;20.60;1.00;;;;;;4971756;28;20470;-80
2021/08/08 08:07:43;;;;;;;0.77;0.70;;;20.60;1.00;;;;;;4973797;28;20543;-80
2021/08/08 08:10:12;;;;;;;1.27;1.00;;;20.60;1.00;;;;;;4972359;28;20455;-80
2021/08/08 08:12:40;;;;;;;0.70;0.70;;;20.60;1.00;;;;;;4972084;28;21002;-79
2021/08/08 08:15:11;;;;;;;1.00;0.90;;;20.60;1.00;;;;;;4971483;28;20486;-80
2021/08/08 08:17:39;;;;;;;2.10;0.63;;;20.60;1.00;;;;;;4972818;28;20435;-80
2021/08/08 08:20:08;;;;;;;0.90;0.80;;;20.60;1.00;;;;;;4971589;28;20439;-80
2021/08/08 08:22:37;;;;;;;0.90;0.67;;;20.60;1.00;;;;;;4973409;28;20471;-80
2021/08/08 08:25:06;;;;;;;1.23;0.90;;;20.60;1.00;;;;;;4973245;28;20443;-80
2021/08/08 08:27:34;;;;;;;1.70;0.87;;;20.60;1.00;;;;;;4973582;28;20506;-80
2021/08/08 08:30:02;;;;;;;2.40;0.80;;;20.70;99.90;;;;;;4972271;28;20440;-80
2021/08/08 08:32:32;;;;;;;1.37;0.83;;;20.70;99.90;;;;;;4973416;28;20458;-80
2021/08/08 08:35:03;;;;;;;1.17;0.73;;;20.70;99.90;;;;;;4972192;28;20546;-81
2021/08/08 08:37:32;;;;;;;0.73;0.73;;;20.50;99.90;;;;;;4972396;28;20451;-81
2021/08/08 08:40:02;;;;;;;1.00;0.83;;;20.50;99.90;;;;;;4971078;28;20453;-79
2021/08/08 08:42:32;;;;;;;0.90;0.80;;;20.40;99.90;;;;;;4972730;28;20506;-80
2021/08/08 08:45:00;;;;;;;2.97;0.87;;;20.30;99.90;;;;;;4972263;28;20471;-80
2021/08/08 08:47:32;;;;;;;0.93;0.80;;;20.30;99.90;;;;;;4971881;28;20511;-80
2021/08/08 08:50:04;;;;;;;1.10;0.80;;;20.20;99.90;;;;;;4971517;28;20463;-80
2021/08/08 08:52:33;;;;;;;1.20;1.10;;;20.10;99.90;;;;;;4972211;28;20455;-80
2021/08/08 08:55:03;;;;;;;1.10;0.83;;;20.30;99.90;;;;;;4971254;28;20447;-81
2021/08/08 08:57:32;;;;;;;2.83;0.87;;;20.40;99.90;;;;;;4972376;28;20455;-80
2021/08/08 09:00:02;;;;;;;2.07;0.80;;;20.40;99.90;;;;;;4985732;28;20495;-80
2021/08/08 09:02:30;;;;;;;1.50;0.90;;;20.30;99.90;;;;;;4971805;28;20462;-81
2021/08/08 09:04:59;;;;;;;4.30;0.97;;;20.30;99.90;;;;;;4970772;28;20876;-80
2021/08/08 09:07:28;;;;;;;0.90;0.73;;;20.20;99.90;;;;;;4971824;28;20439;-80
2021/08/08 09:09:57;;;;;;;1.47;1.00;;;20.10;99.90;;;;;;4970697;28;20447;-81
2021/08/08 09:12:28;;;;;;;0.80;0.70;;;20.20;99.90;;;;;;4968748;28;20506;-80
2021/08/08 09:15:00;;;;;;;0.93;0.80;;;20.20;99.90;;;;;;4971116;28;20526;-80
2021/08/08 09:17:29;;;;;;;0.70;0.60;;;20.10;99.90;;;;;;4972727;28;21048;-81
2021/08/08 09:20:03;;;;;;;0.80;0.63;;;20.20;99.90;;;;;;4970206;28;20450;-80
2021/08/08 09:22:32;;;;;;;1.37;0.70;;;20.20;99.90;;;;;;4971021;28;20476;-80
2021/08/08 09:25:03;;;;;;;0.70;0.70;;;20.30;99.90;;;;;;4972298;28;20463;-81
2021/08/08 09:27:34;;;;;;;1.23;0.70;;;20.30;99.90;;;;;;4972706;28;20439;-80
2021/08/08 09:30:05;;;;;;;2.43;1.20;;;20.30;99.90;;;;;;4971197;28;20515;-80
2021/08/08 09:32:35;;;;;;;1.20;0.80;;;20.30;99.90;;;;;;4987045;28;20525;-80
2021/08/08 09:35:19;;;;;;;0.90;0.80;;;20.40;99.90;;;;;;4987588;28;20443;-80
2021/08/08 09:37:58;;;;;;;1.30;0.90;;;20.60;99.90;;;;;;4972184;28;20440;-81
2021/08/08 09:40:27;;;;;;;0.97;0.97;;;20.80;99.90;;;;;;4972100;28;20465;-80
2021/08/08 09:42:55;;;;;;;0.63;0.63;;;21.00;99.90;;;;;;4961989;28;20491;-80
2021/08/08 09:45:36;;;;;;;3.00;0.97;;;21.00;99.90;;;;;;4972223;28;20532;-80
2021/08/08 09:48:06;;;;;;;1.00;0.80;;;20.90;99.90;;;;;;4972104;28;20494;-80
2021/08/08 09:50:35;;;;;;;0.60;0.60;;;21.00;99.90;;;;;;4970961;28;20459;-80
2021/08/08 09:53:05;;;;;;;0.73;0.73;;;21.10;99.90;;;;;;4972912;28;20447;-80
2021/08/08 09:55:37;;;;;;;0.73;0.70;;;21.30;99.90;;;;;;4974000;28;20560;-80
2021/08/08 09:58:06;;;;;;;0.73;0.70;;;21.20;99.90;;;;;;4973216;28;20454;-80
2021/08/08 10:00:36;;;;;;;1.43;0.80;;;21.30;99.90;;;;;;4976581;28;20465;-80
2021/08/08 10:03:08;;;;;;;0.80;0.80;;;21.30;99.90;;;;;;4976352;28;20468;-80
2021/08/08 10:05:40;;;;;;;0.80;0.70;;;21.30;99.90;;;;;;4976247;28;20852;-80
2021/08/08 10:08:09;;;;;;;1.70;0.80;;;21.30;99.90;;;;;;4974872;28;20543;-80
2021/08/08 10:10:39;;;;;;;1.67;0.80;;;21.30;99.90;;;;;;4975069;28;20443;-81
2021/08/08 10:13:22;;;;;;;1.63;0.87;;;21.20;99.90;;;;;;4988037;28;20455;-81
2021/08/08 10:15:52;;;;;;;3.40;0.63;;;21.30;99.90;;;;;;4975695;28;20457;-81
2021/08/08 10:18:23;;;;;;;2.00;1.00;;;21.30;99.90;;;;;;4974029;28;20441;-80
2021/08/08 10:20:54;;;;;;;1.97;0.90;;;21.30;99.90;;;;;;4974650;28;20465;-80
2021/08/08 10:23:24;;;;;;;0.70;0.70;;;21.40;99.90;;;;;;4973183;28;20475;-80
2021/08/08 10:25:53;;;;;;;2.00;0.70;;;21.50;99.90;;;;;;4974671;28;21028;-80
2021/08/08 10:28:22;;;;;;;2.60;0.90;;;21.40;99.90;;;;;;4974356;28;20458;-80
2021/08/08 10:30:51;;;;;;;2.77;1.03;;;21.50;99.90;;;;;;4973453;28;20513;-81
2021/08/08 10:33:19;;;;;;;2.30;0.80;;;21.40;99.90;;;;;;4973162;28;20470;-80
2021/08/08 10:35:48;;;;;;;1.30;0.90;;;21.40;99.90;;;;;;4989420;28;20578;-81
2021/08/08 10:38:20;;;;;;;0.67;0.63;;;21.40;99.90;;;;;;4974145;28;20450;-80
2021/08/08 10:40:49;;;;;;;0.60;0.60;;;21.40;99.90;;;;;;4988866;28;20470;-81
2021/08/08 10:43:27;;;;;;;1.60;0.80;;;21.40;99.90;;;;;;4974919;28;20450;-80
2021/08/08 10:46:06;;;;;;;0.93;0.73;;;21.30;99.90;;;;;;4989521;28;20440;-80
2021/08/08 10:48:35;;;;;;;0.90;0.70;;;21.40;99.90;;;;;;4974957;28;20458;-80
2021/08/08 10:51:04;;;;;;;1.70;1.00;;;21.50;99.90;;;;;;4974745;28;20470;-80
2021/08/08 10:53:33;;;;;;;1.30;0.77;;;21.60;99.90;;;;;;4975289;28;20968;-80
2021/08/08 10:56:06;;;;;;;1.20;0.83;;;21.50;99.90;;;;;;4974507;28;20960;-80
2021/08/08 10:58:35;;;;;;;1.83;0.90;;;21.40;99.90;;;;;;4989292;28;20959;-81
2021/08/08 11:01:16;;;;;;;1.23;0.70;;;21.50;99.90;;;;;;4974112;28;20484;-80
2021/08/08 11:03:52;;;;;;;1.63;0.80;;;21.60;99.90;;;;;;4974213;28;20481;-80
2021/08/08 11:06:26;;;;;;;2.27;0.80;;;21.70;99.90;;;;;;4973037;28;20831;-80
2021/08/08 11:08:56;;;;;;;0.97;0.80;;;21.80;99.90;;;;;;4973660;28;20947;-79
2021/08/08 11:11:25;;;;;;;0.80;0.77;;;21.80;99.90;;;;;;4971508;28;20529;-80
2021/08/08 11:13:54;;;;;;;1.80;0.80;;;21.90;99.90;;;;;;4973725;28;20454;-79
2021/08/08 11:16:22;;;;;;;1.20;0.73;;;21.90;99.90;;;;;;4973099;28;20511;-80
2021/08/08 11:18:57;;;;;;;2.97;0.93;;;21.90;99.90;;;;;;4988459;28;20442;-80
2021/08/08 11:21:26;;;;;;;1.40;0.90;;;21.60;99.90;;;;;;4971592;28;20530;-80
2021/08/08 11:23:57;;;;;;;1.60;0.80;;;21.50;99.90;;;;;;4973194;28;20478;-80
2021/08/08 11:26:25;;;;;;;1.47;0.83;;;21.50;99.90;;;;;;4973282;28;20450;-81
2021/08/08 11:28:55;;;;;;;1.80;0.70;;;21.50;99.90;;;;;;4972938;28;20615;-79
2021/08/08 11:31:25;;;;;;;1.10;0.80;;;21.60;99.90;;;;;;4972817;28;20473;-80
2021/08/08 11:33:58;;;;;;;1.80;1.00;;;21.60;99.90;;;;;;4972618;28;20460;-79
2021/08/08 11:36:34;;;;;;;0.90;0.90;;;21.50;99.90;;;;;;4972320;28;20459;-80
2021/08/08 11:39:07;;;;;;;1.30;0.90;;;21.40;99.90;;;;;;4971720;28;20442;-80
2021/08/08 11:41:35;;;;;;;1.43;0.80;;;21.50;99.90;;;;;;4972380;28;20476;-81
2021/08/08 11:44:06;;;;;;;2.23;0.80;;;21.70;99.90;;;;;;4972226;28;20465;-80
2021/08/08 11:46:35;;;;;;;0.80;0.80;;;21.70;99.90;;;;;;4986689;28;20580;-80
2021/08/08 11:49:17;;;;;;;1.13;1.00;;;21.70;99.90;;;;;;4986138;28;20533;-81
2021/08/08 11:51:55;;;;;;;0.93;0.83;;;21.50;99.90;;;;;;4972245;28;20529;-80
2021/08/08 11:54:27;;;;;;;0.70;0.70;;;21.60;99.90;;;;;;4969988;28;20533;-81
2021/08/08 11:56:55;;;;;;;2.17;0.90;;;21.80;99.90;;;;;;4973085;28;20501;-81
2021/08/08 11:59:27;;;;;;;4.10;0.90;;;21.90;99.90;;;;;;4971340;28;20447;-81
2021/08/08 12:02:00;;;;;;;1.33;0.60;;;21.80;99.90;;;;;;4987192;28;20471;-80
2021/08/08 12:04:33;;;;;;;0.87;0.50;;;21.80;99.90;;;;;;4970978;28;21198;-80
2021/08/08 12:07:03;;;;;;;0.50;0.50;;;21.80;99.90;;;;;;4953132;29;20453;-80
2021/08/08 12:09:33;;;;;;;0.70;0.50;;;21.80;99.90;;;;;;4951259;28;20445;-80
2021/08/08 12:12:04;;;;;;;0.60;0.60;;;21.90;99.90;;;;;;4951747;28;20874;-81
2021/08/08 12:14:36;;;;;;;3.10;0.60;;;21.80;99.90;;;;;;4950324;29;20458;-81
2021/08/08 12:17:07;;;;;;;0.70;0.60;;;21.90;99.90;;;;;;4952780;28;20462;-80
2021/08/08 12:19:38;;;;;;;1.07;0.60;;;21.80;99.90;;;;;;4951885;28;20532;-82
2021/08/08 12:22:08;;;;;;;1.17;0.50;;;21.90;99.90;;;;;;4958605;28;20476;-80
2021/08/08 12:24:40;;;;;;;0.80;0.63;;;21.80;99.90;;;;;;4971711;28;20484;-80
2021/08/08 12:27:10;;;;;;;0.80;0.80;;;21.80;99.90;;;;;;4972634;28;20454;-80
2021/08/08 12:29:39;;;;;;;0.67;0.67;;;21.80;99.90;;;;;;4971038;28;20435;-80
2021/08/08 12:32:12;;;;;;;1.43;0.60;;;21.80;99.90;;;;;;4972047;28;20475;-81
2021/08/08 12:34:42;;;;;;;1.63;0.80;;;21.80;99.90;;;;;;4986467;28;20449;-80
2021/08/08 12:37:12;;;;;;;1.47;0.90;;;21.90;99.90;;;;;;4972589;28;20471;-80
2021/08/08 12:39:43;;;;;;;1.23;0.70;;;21.90;99.90;;;;;;4971277;28;20453;-81
2021/08/08 12:42:19;;;;;;;0.70;0.70;;;22.00;99.90;;;;;;4986454;28;20473;-81
2021/08/08 12:44:48;;;;;;;0.80;0.80;;;22.00;99.90;;;;;;4971259;28;20998;-80
2021/08/08 12:47:26;;;;;;;3.27;0.70;;;22.00;99.90;;;;;;4972349;28;20554;-80
2021/08/08 12:49:54;;;;;;;0.83;0.70;;;22.10;99.90;;;;;;4979926;28;20982;-80
2021/08/08 12:52:22;;;;;;;3.50;0.70;;;22.20;99.90;;;;;;4990826;28;20452;-81
2021/08/08 12:54:52;;;;;;;0.90;0.80;;;22.30;99.90;;;;;;4984614;28;20860;-80
2021/08/08 12:57:24;;;;;;;0.80;0.70;;;22.30;99.90;;;;;;4970753;28;20466;-80
2021/08/08 12:59:52;;;;;;;0.80;0.80;;;22.30;99.90;;;;;;4971447;28;20448;-80
2021/08/08 13:02:21;;;;;;;1.60;0.73;;;22.40;99.90;;;;;;4987122;28;20907;-80